createdAt,value
2022-11-07T00:02:12.443Z,11.00
2022-11-07T00:04:41.244Z,11.00
2022-11-07T00:07:09.759Z,11.10
2022-11-07T00:09:38.573Z,11.00
2022-11-07T00:12:07.724Z,11.00
2022-11-07T00:14:37.481Z,11.00
2022-11-07T00:17:06.067Z,11.00
2022-11-07T00:19:34.498Z,11.10
2022-11-07T00:22:02.865Z,11.00
2022-11-07T00:24:31.250Z,11.00
2022-11-07T00:26:59.742Z,11.20
2022-11-07T00:29:28.182Z,11.00
2022-11-07T00:31:59.610Z,11.00
2022-11-07T00:34:28.060Z,11.00
2022-11-07T00:36:56.438Z,11.00
2022-11-07T00:39:24.836Z,11.00
2022-11-07T00:41:53.277Z,11.00
2022-11-07T00:44:22.742Z,11.00
2022-11-07T00:46:51.154Z,11.00
2022-11-07T00:49:20.948Z,11.00
2022-11-07T00:51:49.324Z,10.90
2022-11-07T00:54:17.795Z,11.00
2022-11-07T00:56:46.268Z,11.00
2022-11-07T00:59:14.748Z,11.10
2022-11-07T01:01:43.315Z,11.00
2022-11-07T01:04:31.588Z,11.00
2022-11-07T01:07:02.350Z,11.00
2022-11-07T01:09:30.785Z,11.00
2022-11-07T01:11:59.502Z,11.00
2022-11-07T01:14:27.967Z,10.90
2022-11-07T01:16:56.430Z,10.90
2022-11-07T01:19:24.858Z,10.90
2022-11-07T01:21:53.251Z,10.90
2022-11-07T01:24:23.025Z,10.90
2022-11-07T01:26:51.852Z,10.90
2022-11-07T01:29:21.049Z,10.90
2022-11-07T01:31:49.493Z,10.90
2022-11-07T01:34:18.418Z,10.90
2022-11-07T01:36:47.191Z,10.90
2022-11-07T01:39:15.728Z,10.90
2022-11-07T01:41:45.519Z,10.90
2022-11-07T01:44:53.126Z,10.90
2022-11-07T01:47:24.073Z,10.90
2022-11-07T01:49:53.963Z,10.90
2022-11-07T01:52:25.885Z,10.90
2022-11-07T01:54:59.398Z,10.90
2022-11-07T01:57:34.096Z,10.80
2022-11-07T02:00:06.930Z,10.80
2022-11-07T02:02:35.997Z,10.80
2022-11-07T02:05:07.790Z,10.80
2022-11-07T02:07:36.896Z,10.80
2022-11-07T02:10:06.274Z,10.80
2022-11-07T02:12:36.065Z,10.80
2022-11-07T02:15:05.167Z,10.90
2022-11-07T02:17:33.553Z,10.80
2022-11-07T02:20:02.161Z,10.80
2022-11-07T02:22:36.633Z,10.80
2022-11-07T02:25:09.391Z,10.90
2022-11-07T02:27:39.854Z,10.90
2022-11-07T02:30:12.219Z,10.90
2022-11-07T02:32:41.116Z,10.90
2022-11-07T02:35:34.003Z,10.90
2022-11-07T02:38:03.134Z,10.90
2022-11-07T02:40:33.266Z,10.90
2022-11-07T02:43:02.339Z,10.90
2022-11-07T02:45:34.891Z,10.90
2022-11-07T02:48:03.385Z,10.80
2022-11-07T02:50:31.874Z,10.80
2022-11-07T02:53:00.331Z,10.80
2022-11-07T02:55:28.932Z,10.80
2022-11-07T02:57:58.716Z,10.70
2022-11-07T03:00:27.140Z,10.80
2022-11-07T03:02:55.657Z,10.70
2022-11-07T03:05:24.092Z,10.70
2022-11-07T03:07:52.558Z,10.70
2022-11-07T03:10:20.907Z,10.70
2022-11-07T03:12:49.346Z,10.70
2022-11-07T03:15:19.158Z,10.60
2022-11-07T03:17:47.558Z,10.60
2022-11-07T03:20:15.952Z,10.60
2022-11-07T03:22:44.334Z,10.70
2022-11-07T03:25:12.734Z,10.70
2022-11-07T03:27:47.472Z,10.70
2022-11-07T03:30:17.991Z,10.70
2022-11-07T03:32:46.792Z,10.70
2022-11-07T03:35:15.239Z,10.70
2022-11-07T03:37:46.876Z,10.70
2022-11-07T03:40:16.114Z,10.70
2022-11-07T03:42:45.769Z,10.70
2022-11-07T03:45:16.086Z,10.70
2022-11-07T03:47:47.387Z,10.70
2022-11-07T03:50:18.306Z,10.70
2022-11-07T03:52:47.107Z,10.70
2022-11-07T03:55:18.039Z,10.70
2022-11-07T03:57:47.644Z,10.80
2022-11-07T04:00:17.638Z,10.70
2022-11-07T04:02:47.644Z,10.80
2022-11-07T04:05:16.322Z,10.80
2022-11-07T04:07:44.681Z,10.80
2022-11-07T04:10:13.206Z,10.80
2022-11-07T04:12:59.454Z,10.80
2022-11-07T04:15:45.379Z,10.80
2022-11-07T04:18:15.135Z,10.80
2022-11-07T04:20:43.633Z,10.80
2022-11-07T04:23:12.341Z,10.80
2022-11-07T04:25:58.377Z,10.80
2022-11-07T04:28:26.809Z,10.80
2022-11-07T04:30:55.280Z,10.80
2022-11-07T04:33:25.087Z,10.80
2022-11-07T04:35:53.603Z,10.80
2022-11-07T04:38:22.044Z,11.00
2022-11-07T04:40:55.391Z,10.80
2022-11-07T04:43:24.245Z,10.80
2022-11-07T04:45:53.091Z,10.90
2022-11-07T04:48:22.043Z,10.90
2022-11-07T04:50:52.111Z,10.90
2022-11-07T04:53:20.615Z,11.00
2022-11-07T04:55:49.244Z,11.00
2022-11-07T04:58:17.666Z,11.00
2022-11-07T05:00:46.085Z,11.10
2022-11-07T05:03:14.829Z,11.10
2022-11-07T05:05:43.555Z,11.10
2022-11-07T05:08:13.314Z,11.20
2022-11-07T05:10:41.907Z,11.10
2022-11-07T05:13:10.397Z,11.20
2022-11-07T05:15:38.900Z,11.20
2022-11-07T05:18:07.366Z,11.30
2022-11-07T05:20:37.446Z,11.40
2022-11-07T05:23:17.643Z,11.30
2022-11-07T05:25:49.536Z,11.30
2022-11-07T05:28:28.091Z,11.30
2022-11-07T05:31:00.984Z,11.40
2022-11-07T05:33:29.919Z,11.40
2022-11-07T05:35:58.312Z,11.40
2022-11-07T05:38:26.712Z,11.40
2022-11-07T05:40:56.557Z,11.40
2022-11-07T05:43:24.989Z,11.40
2022-11-07T05:45:53.358Z,11.50
2022-11-07T05:48:21.754Z,11.50
2022-11-07T05:50:50.226Z,11.50
2022-11-07T05:53:20.807Z,11.50
2022-11-07T05:55:49.347Z,11.60
2022-11-07T05:58:19.450Z,11.60
2022-11-07T06:00:48.682Z,11.60
2022-11-07T06:03:18.522Z,11.60
2022-11-07T06:05:47.600Z,11.60
2022-11-07T06:08:16.319Z,11.60
2022-11-07T06:10:45.093Z,11.50
2022-11-07T06:13:16.622Z,11.50
2022-11-07T06:15:47.133Z,11.60
2022-11-07T06:18:17.366Z,11.50
2022-11-07T06:20:46.237Z,11.60
2022-11-07T06:23:15.264Z,11.60
2022-11-07T06:25:44.290Z,11.60
2022-11-07T06:28:13.855Z,11.60
2022-11-07T06:30:42.737Z,11.60
2022-11-07T06:33:15.905Z,11.60
2022-11-07T06:35:45.166Z,11.60
2022-11-07T06:38:15.051Z,11.80
2022-11-07T06:40:43.876Z,11.70
2022-11-07T06:43:14.632Z,11.70
2022-11-07T06:45:44.521Z,11.70
2022-11-07T06:48:14.838Z,11.70
2022-11-07T06:50:43.261Z,11.80
2022-11-07T06:53:14.284Z,11.80
2022-11-07T06:55:43.131Z,11.80
2022-11-07T06:58:11.571Z,11.80
2022-11-07T07:00:40.051Z,11.80
2022-11-07T07:03:08.582Z,11.90
2022-11-07T07:05:38.701Z,11.90
2022-11-07T07:08:08.594Z,11.90
2022-11-07T07:10:39.467Z,11.90
2022-11-07T07:13:07.898Z,12.00
2022-11-07T07:15:49.733Z,12.00
2022-11-07T07:18:19.396Z,12.10
2022-11-07T07:20:49.532Z,12.00
2022-11-07T07:23:18.571Z,12.10
2022-11-07T07:25:47.284Z,12.10
2022-11-07T07:28:15.695Z,12.10
2022-11-07T07:30:48.849Z,12.20
2022-11-07T07:33:20.309Z,12.20
2022-11-07T07:35:50.212Z,12.20
2022-11-07T07:38:18.672Z,12.30
2022-11-07T07:40:47.107Z,12.30
2022-11-07T07:43:16.075Z,12.40
2022-11-07T07:45:44.708Z,12.40
2022-11-07T07:48:13.113Z,12.40
2022-11-07T07:50:41.532Z,12.50
2022-11-07T07:53:11.355Z,12.50
2022-11-07T07:55:39.811Z,12.50
2022-11-07T07:58:08.318Z,12.60
2022-11-07T08:00:36.966Z,12.60
2022-11-07T08:03:09.520Z,12.60
2022-11-07T08:05:39.440Z,12.70
2022-11-07T08:08:09.445Z,12.80
2022-11-07T08:10:42.446Z,12.80
2022-11-07T08:13:11.712Z,12.90
2022-11-07T08:15:40.892Z,13.00
2022-11-07T08:18:09.353Z,13.00
2022-11-07T08:20:37.787Z,13.00
2022-11-07T08:23:12.944Z,13.00
2022-11-07T08:25:51.795Z,13.00
2022-11-07T08:28:22.068Z,13.10
2022-11-07T08:30:57.751Z,13.00
2022-11-07T08:33:27.277Z,13.00
2022-11-07T08:35:56.683Z,13.00
2022-11-07T08:38:25.232Z,13.00
2022-11-07T08:40:55.274Z,13.10
2022-11-07T08:43:24.166Z,13.20
2022-11-07T08:45:54.482Z,13.20
2022-11-07T08:48:23.637Z,13.30
2022-11-07T08:50:56.053Z,13.30
2022-11-07T08:53:25.934Z,13.30
2022-11-07T08:56:01.919Z,13.40
2022-11-07T08:58:30.604Z,13.30
2022-11-07T09:00:59.194Z,13.40
2022-11-07T09:03:45.188Z,13.40
2022-11-07T09:06:16.239Z,13.50
2022-11-07T09:08:45.405Z,13.60
2022-11-07T09:11:18.669Z,13.60
2022-11-07T09:13:48.009Z,13.60
2022-11-07T09:16:18.163Z,13.60
2022-11-07T09:18:48.163Z,13.60
2022-11-07T09:21:22.076Z,13.60
2022-11-07T09:23:51.354Z,13.60
2022-11-07T09:26:21.344Z,13.60
2022-11-07T09:28:52.953Z,13.60
2022-11-07T09:31:22.834Z,13.60
2022-11-07T09:33:51.391Z,13.70
2022-11-07T09:36:22.068Z,13.80
2022-11-07T09:38:50.541Z,13.80
2022-11-07T09:41:32.497Z,13.80
2022-11-07T09:44:14.115Z,13.80
2022-11-07T09:46:56.350Z,13.90
2022-11-07T09:49:29.811Z,13.80
2022-11-07T09:52:06.071Z,13.80
2022-11-07T09:54:39.085Z,13.80
2022-11-07T09:57:14.399Z,13.80
2022-11-07T09:59:46.000Z,13.90
2022-11-07T10:02:19.687Z,13.90
2022-11-07T10:04:54.307Z,14.00
2022-11-07T10:07:32.730Z,14.00
2022-11-07T10:10:07.902Z,14.10
2022-11-07T10:13:01.127Z,14.10
2022-11-07T10:15:51.925Z,14.10
2022-11-07T10:18:30.670Z,14.10
2022-11-07T10:21:35.879Z,14.10
2022-11-07T10:24:14.765Z,14.20
2022-11-07T10:26:45.132Z,14.20
2022-11-07T10:29:16.410Z,14.10
2022-11-07T10:31:49.035Z,14.10
2022-11-07T10:34:24.181Z,14.00
2022-11-07T10:36:52.592Z,14.10
2022-11-07T10:39:21.363Z,14.00
2022-11-07T10:42:00.795Z,14.00
2022-11-07T10:44:30.869Z,13.90
2022-11-07T10:46:59.422Z,13.90
2022-11-07T10:49:29.581Z,13.90
2022-11-07T10:52:08.584Z,14.00
2022-11-07T10:54:37.259Z,14.10
2022-11-07T10:57:08.131Z,14.20
2022-11-07T10:59:40.860Z,14.40
2022-11-07T11:02:20.881Z,14.30
2022-11-07T11:04:51.463Z,14.40
2022-11-07T11:07:24.198Z,14.50
2022-11-07T11:09:58.555Z,14.50
2022-11-07T11:12:32.177Z,14.60
2022-11-07T11:15:13.562Z,14.70
2022-11-07T11:17:42.265Z,14.70
2022-11-07T11:20:32.611Z,14.70
2022-11-07T11:23:01.909Z,14.80
2022-11-07T11:25:30.375Z,14.70
2022-11-07T11:28:03.580Z,14.70
2022-11-07T11:30:36.856Z,14.60
2022-11-07T11:33:13.018Z,14.70
2022-11-07T11:35:47.128Z,14.70
2022-11-07T11:38:21.014Z,14.80
2022-11-07T11:41:04.688Z,14.80
2022-11-07T11:43:42.379Z,14.80
2022-11-07T11:46:17.378Z,14.80
2022-11-07T11:48:51.661Z,14.80
2022-11-07T11:51:28.488Z,14.80
2022-11-07T11:53:57.503Z,14.90
2022-11-07T11:56:36.255Z,14.80
2022-11-07T11:59:28.707Z,14.90
2022-11-07T12:02:12.993Z,14.90
2022-11-07T12:04:56.316Z,14.90
2022-11-07T12:07:38.952Z,14.90
2022-11-07T12:10:12.774Z,14.90
2022-11-07T12:12:52.276Z,14.90
2022-11-07T12:15:30.933Z,14.90
2022-11-07T12:18:08.006Z,14.90
2022-11-07T12:20:45.978Z,14.90
2022-11-07T12:23:26.758Z,14.90
2022-11-07T12:26:01.555Z,14.90
2022-11-07T12:28:38.305Z,14.90
2022-11-07T12:31:17.045Z,14.90
2022-11-07T12:33:52.286Z,14.90
2022-11-07T12:36:39.597Z,14.80
2022-11-07T12:39:27.612Z,14.80
2022-11-07T12:41:59.699Z,14.80
2022-11-07T12:44:47.807Z,14.90
2022-11-07T12:47:29.438Z,14.90
2022-11-07T12:50:16.908Z,14.90
2022-11-07T12:52:56.833Z,15.00
2022-11-07T12:55:31.070Z,15.00
2022-11-07T12:58:02.473Z,15.10
2022-11-07T13:00:31.159Z,15.10
2022-11-07T13:03:14.976Z,15.20
2022-11-07T13:05:57.183Z,15.30
2022-11-07T13:08:34.875Z,15.30
2022-11-07T13:11:12.825Z,15.30
2022-11-07T13:13:55.584Z,15.30
2022-11-07T13:16:28.939Z,15.30
2022-11-07T13:19:08.869Z,15.40
2022-11-07T13:21:45.887Z,15.30
2022-11-07T13:24:23.028Z,15.30
2022-11-07T13:26:51.582Z,15.20
2022-11-07T13:29:27.396Z,15.10
2022-11-07T13:32:11.140Z,15.10
2022-11-07T13:34:58.688Z,14.90
2022-11-07T13:37:35.662Z,14.90
2022-11-07T13:40:08.390Z,14.80
2022-11-07T13:42:37.156Z,14.60
2022-11-07T13:45:21.775Z,14.60
2022-11-07T13:47:53.186Z,14.60
2022-11-07T13:50:27.298Z,14.50
2022-11-07T13:53:02.061Z,14.50
2022-11-07T13:55:35.753Z,14.60
2022-11-07T13:58:08.511Z,14.60
2022-11-07T14:00:38.562Z,14.60
2022-11-07T14:03:07.364Z,14.60
2022-11-07T14:05:38.195Z,14.60
2022-11-07T14:08:15.838Z,14.70
2022-11-07T14:10:46.387Z,14.70
2022-11-07T14:13:22.417Z,14.70
2022-11-07T14:15:54.638Z,14.70
2022-11-07T14:18:26.230Z,14.80
2022-11-07T14:20:57.522Z,14.70
2022-11-07T14:23:29.830Z,14.90
2022-11-07T14:26:01.232Z,14.80
2022-11-07T14:28:36.780Z,14.90
2022-11-07T14:31:07.129Z,14.90
2022-11-07T14:33:35.619Z,14.90
2022-11-07T14:36:06.887Z,14.90
2022-11-07T14:38:45.187Z,14.90
2022-11-07T14:41:14.777Z,14.90
2022-11-07T14:43:43.864Z,14.90
2022-11-07T14:46:18.852Z,14.90
2022-11-07T14:48:51.277Z,14.90
2022-11-07T14:51:23.673Z,14.90
2022-11-07T14:53:58.232Z,14.80
2022-11-07T14:56:30.851Z,14.80
2022-11-07T14:59:00.822Z,14.80
2022-11-07T15:01:31.925Z,14.80
2022-11-07T15:04:04.349Z,14.70
2022-11-07T15:06:34.456Z,14.70
2022-11-07T15:09:06.343Z,14.70
2022-11-07T15:11:36.288Z,14.70
2022-11-07T15:14:07.125Z,14.60
2022-11-07T15:16:39.095Z,14.60
2022-11-07T15:19:10.964Z,14.60
2022-11-07T15:21:51.994Z,14.50
2022-11-07T15:24:44.395Z,14.50
2022-11-07T15:27:20.442Z,14.40
2022-11-07T15:29:54.084Z,14.40
2022-11-07T15:32:25.918Z,14.40
2022-11-07T15:35:23.139Z,14.30
2022-11-07T15:37:53.335Z,14.30
2022-11-07T15:40:24.474Z,14.20
2022-11-07T15:42:52.970Z,14.20
2022-11-07T15:45:21.975Z,14.10
2022-11-07T15:47:51.411Z,14.10
2022-11-07T15:50:21.900Z,14.10
2022-11-07T15:52:50.764Z,14.00
2022-11-07T15:55:21.266Z,13.90
2022-11-07T15:57:52.783Z,13.90
2022-11-07T16:00:23.922Z,13.90
2022-11-07T16:02:52.780Z,13.80
2022-11-07T16:05:21.369Z,13.80
2022-11-07T16:07:50.065Z,13.80
2022-11-07T16:10:21.818Z,13.70
2022-11-07T16:12:51.785Z,13.70
2022-11-07T16:15:22.625Z,13.70
2022-11-07T16:17:51.029Z,13.70
2022-11-07T16:20:21.685Z,13.70
2022-11-07T16:22:51.338Z,13.60
2022-11-07T16:25:22.603Z,13.60
2022-11-07T16:27:54.015Z,13.60
2022-11-07T16:30:23.387Z,13.60
2022-11-07T16:32:51.887Z,13.60
2022-11-07T16:35:20.345Z,13.50
2022-11-07T16:37:48.882Z,13.50
2022-11-07T16:40:20.337Z,13.50
2022-11-07T16:42:48.823Z,13.50
2022-11-07T16:45:20.462Z,13.50
2022-11-07T16:47:48.927Z,13.50
2022-11-07T16:50:18.406Z,13.50
2022-11-07T16:52:46.825Z,13.50
2022-11-07T16:55:17.013Z,13.60
2022-11-07T16:57:46.338Z,13.60
2022-11-07T17:00:22.118Z,13.60
2022-11-07T17:02:51.238Z,13.60
2022-11-07T17:05:20.547Z,13.60
2022-11-07T17:07:50.108Z,13.70
2022-11-07T17:10:19.206Z,13.60
2022-11-07T17:12:47.795Z,13.60
2022-11-07T17:15:16.359Z,13.70
2022-11-07T17:17:47.048Z,13.70
2022-11-07T17:20:48.681Z,13.70
2022-11-07T17:23:10.038Z,13.70
2022-11-07T17:25:39.119Z,13.70
2022-11-07T17:28:08.031Z,13.80
2022-11-07T17:30:36.478Z,13.80
2022-11-07T17:33:06.477Z,13.80
2022-11-07T17:35:35.446Z,13.80
2022-11-07T17:38:04.721Z,13.90
2022-11-07T17:40:34.931Z,13.90
2022-11-07T17:43:04.063Z,13.90
2022-11-07T17:45:32.502Z,13.90
2022-11-07T17:48:01.083Z,13.90
2022-11-07T17:50:31.091Z,14.00
2022-11-07T17:53:00.170Z,14.00
2022-11-07T17:55:28.708Z,14.00
2022-11-07T17:57:57.144Z,14.10
2022-11-07T18:00:27.340Z,14.00
2022-11-07T18:02:55.823Z,14.00
2022-11-07T18:05:28.867Z,14.10
2022-11-07T18:08:03.159Z,14.10
2022-11-07T18:10:32.775Z,14.10
2022-11-07T18:13:01.246Z,14.10
2022-11-07T18:15:29.808Z,14.10
2022-11-07T18:17:58.360Z,14.10
2022-11-07T18:20:27.659Z,14.10
2022-11-07T18:22:56.067Z,14.20
2022-11-07T18:25:25.878Z,14.20
2022-11-07T18:27:54.771Z,14.20
2022-11-07T18:30:23.192Z,14.20
2022-11-07T18:32:52.291Z,14.40
2022-11-07T18:35:21.055Z,14.20
2022-11-07T18:37:49.503Z,14.20
2022-11-07T18:40:18.040Z,14.10
2022-11-07T18:42:48.097Z,14.10
2022-11-07T18:45:16.693Z,14.10
2022-11-07T18:47:45.133Z,14.00
2022-11-07T18:50:13.731Z,14.00
2022-11-07T18:52:42.128Z,13.90
2022-11-07T18:55:11.059Z,13.90
2022-11-07T18:57:39.610Z,13.90
2022-11-07T19:00:13.703Z,13.90
2022-11-07T19:02:42.327Z,13.80
2022-11-07T19:05:10.987Z,13.80
2022-11-07T19:07:42.788Z,13.70
2022-11-07T19:10:12.146Z,13.70
2022-11-07T19:12:41.186Z,13.70
2022-11-07T19:15:12.221Z,13.70
2022-11-07T19:17:40.735Z,13.70
2022-11-07T19:20:10.420Z,13.70
2022-11-07T19:22:38.846Z,13.70
2022-11-07T19:25:07.637Z,13.70
2022-11-07T19:27:36.070Z,13.70
2022-11-07T19:30:06.112Z,13.70
2022-11-07T19:32:35.951Z,13.70
2022-11-07T19:35:04.527Z,13.70
2022-11-07T19:37:32.956Z,13.70
2022-11-07T19:40:01.471Z,13.70
2022-11-07T19:42:30.053Z,13.70
2022-11-07T19:44:58.681Z,13.60
2022-11-07T19:47:27.109Z,13.60
2022-11-07T19:49:56.891Z,13.60
2022-11-07T19:52:25.783Z,13.60
2022-11-07T19:54:54.200Z,13.70
2022-11-07T19:57:22.660Z,13.60
2022-11-07T19:59:51.075Z,13.60
2022-11-07T20:02:32.511Z,13.60
2022-11-07T20:05:03.603Z,13.50
2022-11-07T20:07:32.085Z,13.60
2022-11-07T20:10:01.257Z,13.60
2022-11-07T20:12:29.722Z,13.60
2022-11-07T20:14:58.186Z,13.60
2022-11-07T20:17:26.635Z,13.60
2022-11-07T20:19:55.012Z,13.60
2022-11-07T20:22:24.775Z,13.60
2022-11-07T20:24:53.371Z,13.60
2022-11-07T20:27:21.759Z,13.60
2022-11-07T20:29:50.202Z,13.50
2022-11-07T20:32:18.635Z,13.60
2022-11-07T20:34:52.749Z,13.60
2022-11-07T20:37:24.035Z,13.60
2022-11-07T20:39:52.430Z,13.70
2022-11-07T20:42:21.181Z,13.70
2022-11-07T20:44:51.137Z,13.70
2022-11-07T20:47:19.941Z,13.80
2022-11-07T20:49:48.694Z,13.70
2022-11-07T20:52:17.126Z,13.80
2022-11-07T20:54:46.874Z,13.80
2022-11-07T20:57:15.367Z,13.80
2022-11-07T20:59:45.344Z,13.90
2022-11-07T21:02:14.339Z,13.80
2022-11-07T21:05:03.054Z,13.90
2022-11-07T21:07:31.202Z,13.90
2022-11-07T21:10:00.958Z,13.90
2022-11-07T21:12:29.420Z,14.00
2022-11-07T21:14:57.797Z,14.00
2022-11-07T21:17:26.235Z,14.00
2022-11-07T21:19:54.754Z,14.00
2022-11-07T21:22:28.098Z,14.10
2022-11-07T21:24:57.787Z,14.00
2022-11-07T21:27:27.584Z,14.00
2022-11-07T21:29:56.222Z,14.10
2022-11-07T21:32:24.620Z,14.00
2022-11-07T21:34:53.054Z,14.10
2022-11-07T21:37:21.544Z,14.10
2022-11-07T21:39:49.938Z,14.10
2022-11-07T21:42:18.334Z,14.10
2022-11-07T21:44:48.127Z,14.10
2022-11-07T21:47:16.522Z,14.10
2022-11-07T21:49:44.973Z,14.10
2022-11-07T21:52:13.386Z,14.10
2022-11-07T21:54:41.912Z,14.10
2022-11-07T21:57:10.343Z,14.10
2022-11-07T21:59:38.843Z,14.10
2022-11-07T22:02:10.546Z,14.10
2022-11-07T22:04:39.131Z,14.10
2022-11-07T22:07:07.569Z,14.10
2022-11-07T22:09:35.953Z,14.10
2022-11-07T22:12:04.727Z,14.10
2022-11-07T22:14:33.103Z,14.10
2022-11-07T22:17:01.517Z,14.10
2022-11-07T22:19:31.435Z,14.10
2022-11-07T22:21:59.837Z,14.10
2022-11-07T22:24:28.225Z,14.10
2022-11-07T22:26:57.189Z,14.10
2022-11-07T22:29:25.592Z,14.20
2022-11-07T22:31:54.137Z,14.10
2022-11-07T22:34:22.591Z,14.30
2022-11-07T22:36:52.571Z,14.10
2022-11-07T22:39:21.124Z,14.10
2022-11-07T22:41:49.729Z,14.10
2022-11-07T22:44:18.097Z,14.10
2022-11-07T22:46:46.586Z,14.10
2022-11-07T22:49:14.989Z,14.20
2022-11-07T22:51:43.404Z,14.10
2022-11-07T22:54:14.609Z,14.10
2022-11-07T22:56:43.048Z,14.10
2022-11-07T22:59:12.323Z,14.10
2022-11-07T23:01:43.004Z,14.10
2022-11-07T23:04:14.613Z,14.10
2022-11-07T23:06:43.258Z,14.10
2022-11-07T23:09:14.385Z,14.00
2022-11-07T23:11:46.916Z,14.00
2022-11-07T23:14:18.722Z,14.00
2022-11-07T23:16:48.896Z,14.00
2022-11-07T23:19:21.798Z,14.10
2022-11-07T23:21:50.862Z,13.90
2022-11-07T23:24:21.151Z,13.90
2022-11-07T23:26:49.908Z,13.80
2022-11-07T23:29:20.799Z,13.80
2022-11-07T23:31:50.333Z,13.70
2022-11-07T23:34:19.963Z,13.70
2022-11-07T23:36:51.344Z,13.60
2022-11-07T23:39:22.812Z,13.50
2022-11-07T23:41:51.296Z,13.50
2022-11-07T23:44:19.724Z,13.30
2022-11-07T23:47:05.938Z,13.40
2022-11-07T23:49:51.029Z,13.30
2022-11-07T23:52:19.783Z,13.20
2022-11-07T23:55:07.415Z,13.10
2022-11-07T23:57:56.417Z,13.10
